createdAt,value
2018-08-19T00:01:12.054Z,18.10
2018-08-19T00:03:40.613Z,18.10
2018-08-19T00:06:09.053Z,18.10
2018-08-19T00:08:37.620Z,18.10
2018-08-19T00:11:07.497Z,18.10
2018-08-19T00:13:37.603Z,18.10
2018-08-19T00:16:06.872Z,18.10
2018-08-19T00:18:35.607Z,17.90
2018-08-19T00:21:07.407Z,17.90
2018-08-19T00:23:41.267Z,17.80
2018-08-19T00:26:09.767Z,17.80
2018-08-19T00:28:38.286Z,17.70
2018-08-19T00:31:07.033Z,17.80
2018-08-19T00:33:35.999Z,17.80
2018-08-19T00:36:18.746Z,17.80
2018-08-19T00:38:47.325Z,17.90
2018-08-19T00:41:16.925Z,17.90
2018-08-19T00:43:45.438Z,17.90
2018-08-19T00:46:31.495Z,17.90
2018-08-19T00:49:01.039Z,18.00
2018-08-19T00:51:31.285Z,17.80
2018-08-19T00:54:00.290Z,17.70
2018-08-19T00:56:28.757Z,17.60
2018-08-19T00:58:57.168Z,17.70
2018-08-19T01:01:37.574Z,17.70
2018-08-19T01:04:09.041Z,17.60
2018-08-19T01:06:42.895Z,17.60
2018-08-19T01:09:11.641Z,17.40
2018-08-19T01:18:46.969Z,17.40
2018-08-19T01:21:15.474Z,17.50
2018-08-19T01:23:44.022Z,17.50
2018-08-19T01:26:12.448Z,17.40
2018-08-19T01:28:43.489Z,17.30
2018-08-19T01:31:13.134Z,17.30
2018-08-19T01:33:41.601Z,17.40
2018-08-19T01:36:10.107Z,17.30
2018-08-19T01:38:38.884Z,17.40
2018-08-19T01:41:07.363Z,17.40
2018-08-19T01:43:35.899Z,17.60
2018-08-19T01:46:04.737Z,17.60
2018-08-19T01:48:33.311Z,17.60
2018-08-19T01:51:02.774Z,17.70
2018-08-19T01:53:32.318Z,17.60
2018-08-19T01:56:01.428Z,17.50
2018-08-19T01:58:32.653Z,17.50
2018-08-19T02:01:01.695Z,17.50
2018-08-19T02:03:30.616Z,17.40
2018-08-19T02:05:59.060Z,17.30
2018-08-19T02:08:28.240Z,17.30
2018-08-19T02:10:57.030Z,17.20
2018-08-19T02:13:25.967Z,17.30
2018-08-19T02:15:54.462Z,17.40
2018-08-19T02:18:23.601Z,17.30
2018-08-19T02:20:53.120Z,17.30
2018-08-19T02:23:21.566Z,17.30
2018-08-19T02:25:50.098Z,17.30
2018-08-19T02:28:21.113Z,17.20
2018-08-19T02:30:56.073Z,17.10
2018-08-19T02:33:24.602Z,17.10
2018-08-19T02:35:57.082Z,17.10
2018-08-19T02:38:25.620Z,17.10
2018-08-19T02:40:54.472Z,17.10
2018-08-19T02:43:23.393Z,17.00
2018-08-19T02:45:51.846Z,16.90
2018-08-19T02:48:34.600Z,16.80
2018-08-19T02:51:03.083Z,16.80
2018-08-19T02:53:32.118Z,16.80
2018-08-19T02:56:01.013Z,16.90
2018-08-19T02:58:29.750Z,16.90
2018-08-19T03:00:58.132Z,17.00
2018-08-19T03:03:26.882Z,17.00
2018-08-19T03:06:00.193Z,16.90
2018-08-19T03:08:29.708Z,16.90
2018-08-19T03:10:58.161Z,16.80
2018-08-19T03:13:27.006Z,16.80
2018-08-19T03:15:56.595Z,16.80
2018-08-19T03:18:25.333Z,16.80
2018-08-19T03:20:53.760Z,16.60
2018-08-19T03:23:22.281Z,16.60
2018-08-19T03:25:50.691Z,16.70
2018-08-19T03:28:19.152Z,16.80
2018-08-19T03:30:54.728Z,16.90
2018-08-19T03:33:23.145Z,16.90
2018-08-19T03:35:51.626Z,16.90
2018-08-19T03:38:20.050Z,16.70
2018-08-19T03:40:48.619Z,16.60
2018-08-19T03:43:17.079Z,16.60
2018-08-19T03:45:45.565Z,16.60
2018-08-19T03:48:13.994Z,16.70
2018-08-19T03:50:42.547Z,16.60
2018-08-19T03:53:11.106Z,16.60
2018-08-19T03:55:39.568Z,16.60
2018-08-19T03:58:09.111Z,16.60
2018-08-19T04:00:39.278Z,16.60
2018-08-19T04:03:17.544Z,16.40
2018-08-19T04:05:50.293Z,16.40
2018-08-19T04:08:18.730Z,16.30
2018-08-19T04:10:48.003Z,16.40
2018-08-19T04:13:33.907Z,16.40
2018-08-19T04:16:03.981Z,16.30
2018-08-19T04:18:34.629Z,16.40
2018-08-19T04:21:05.237Z,16.30
2018-08-19T04:23:34.178Z,16.20
2018-08-19T04:26:03.439Z,16.30
2018-08-19T04:28:35.378Z,16.40
2018-08-19T04:31:08.930Z,16.40
2018-08-19T04:33:39.664Z,16.50
2018-08-19T04:36:08.294Z,16.50
2018-08-19T04:38:36.708Z,16.30
2018-08-19T04:41:05.469Z,16.20
2018-08-19T04:43:33.941Z,16.20
2018-08-19T04:46:03.062Z,16.30
2018-08-19T04:48:32.312Z,16.30
2018-08-19T04:51:02.492Z,16.30
2018-08-19T04:53:33.495Z,16.30
2018-08-19T04:56:02.540Z,16.30
2018-08-19T04:58:30.992Z,16.30
2018-08-19T05:01:00.811Z,16.30
2018-08-19T05:03:29.262Z,16.20
2018-08-19T05:06:01.539Z,16.30
2018-08-19T05:08:30.681Z,16.30
2018-08-19T05:11:00.741Z,16.30
2018-08-19T05:13:29.327Z,16.30
2018-08-19T05:15:57.930Z,16.30
2018-08-19T05:18:27.079Z,16.30
2018-08-19T05:21:16.979Z,16.30
2018-08-19T05:23:46.071Z,16.40
2018-08-19T05:26:14.886Z,16.40
2018-08-19T05:28:50.351Z,16.50
2018-08-19T05:31:18.745Z,16.50
2018-08-19T05:33:47.242Z,16.50
2018-08-19T05:36:15.809Z,16.60
2018-08-19T05:38:45.408Z,16.60
2018-08-19T05:41:13.863Z,16.70
2018-08-19T05:43:42.393Z,16.70
2018-08-19T05:46:10.909Z,16.70
2018-08-19T05:48:39.316Z,16.70
2018-08-19T05:51:07.855Z,16.80
2018-08-19T05:53:40.553Z,16.90
2018-08-19T05:56:08.997Z,17.00
2018-08-19T05:58:37.501Z,17.00
2018-08-19T06:01:06.082Z,17.10
2018-08-19T06:03:34.776Z,17.10
2018-08-19T06:06:03.291Z,17.20
2018-08-19T06:08:32.910Z,17.20
2018-08-19T06:11:01.865Z,17.30
2018-08-19T06:13:30.750Z,17.40
2018-08-19T06:15:59.378Z,17.30
2018-08-19T06:18:28.064Z,17.40
2018-08-19T06:20:56.647Z,17.60
2018-08-19T06:23:25.117Z,17.60
2018-08-19T06:25:53.712Z,17.70
2018-08-19T06:28:22.151Z,17.70
2018-08-19T06:30:51.665Z,17.70
2018-08-19T06:33:20.176Z,17.70
2018-08-19T06:35:48.717Z,17.70
2018-08-19T06:38:17.110Z,17.80
2018-08-19T06:40:45.656Z,17.80
2018-08-19T06:43:14.217Z,17.90
2018-08-19T06:45:42.971Z,17.90
2018-08-19T06:48:11.746Z,17.90
2018-08-19T06:50:40.785Z,17.90
2018-08-19T06:53:14.302Z,18.10
2018-08-19T06:55:42.964Z,18.30
2018-08-19T06:58:11.883Z,18.40
2018-08-19T07:00:40.429Z,18.40
2018-08-19T07:03:09.059Z,18.30
2018-08-19T07:05:37.736Z,18.30
2018-08-19T07:08:06.445Z,18.30
2018-08-19T07:10:36.329Z,18.30
2018-08-19T07:13:08.946Z,18.40
2018-08-19T07:15:39.063Z,18.40
2018-08-19T07:18:10.611Z,18.50
2018-08-19T07:20:40.164Z,18.50
2018-08-19T07:23:09.647Z,18.50
2018-08-19T07:25:38.532Z,18.60
2018-08-19T07:28:08.456Z,18.70
2018-08-19T07:30:36.905Z,18.70
2018-08-19T07:33:05.791Z,18.70
2018-08-19T07:35:34.259Z,18.70
2018-08-19T07:38:02.869Z,18.70
2018-08-19T07:40:32.147Z,18.80
2018-08-19T07:43:00.792Z,18.80
2018-08-19T07:45:29.308Z,18.80
2018-08-19T07:47:57.983Z,18.80
2018-08-19T07:50:26.565Z,18.80
2018-08-19T07:52:55.435Z,18.80
2018-08-19T07:55:24.269Z,19.00
2018-08-19T07:57:52.822Z,19.00
2018-08-19T08:00:27.306Z,19.00
2018-08-19T08:02:56.070Z,19.10
2018-08-19T08:05:26.652Z,19.20
2018-08-19T08:07:55.153Z,19.20
2018-08-19T08:10:23.958Z,19.20
2018-08-19T08:12:57.552Z,19.20
2018-08-19T08:15:26.634Z,19.30
2018-08-19T08:17:55.123Z,19.30
2018-08-19T08:20:23.751Z,19.40
2018-08-19T08:22:52.191Z,19.40
2018-08-19T08:25:21.129Z,19.50
2018-08-19T08:27:49.555Z,19.60
2018-08-19T08:30:18.164Z,19.60
2018-08-19T08:32:49.473Z,19.70
2018-08-19T08:35:17.871Z,19.80
2018-08-19T08:37:46.334Z,19.80
2018-08-19T08:40:14.941Z,19.80
2018-08-19T08:42:44.632Z,19.90
2018-08-19T08:45:14.592Z,20.00
2018-08-19T08:47:43.174Z,20.00
2018-08-19T08:50:13.495Z,20.10
2018-08-19T08:52:43.611Z,20.20
2018-08-19T08:55:13.223Z,20.20
2018-08-19T08:57:41.805Z,20.40
2018-08-19T09:00:11.342Z,20.70
2018-08-19T09:02:39.918Z,20.70
2018-08-19T09:05:10.485Z,20.70
2018-08-19T09:07:40.073Z,20.80
2018-08-19T09:10:09.258Z,20.90
2018-08-19T09:12:56.651Z,21.00
2018-08-19T09:15:25.186Z,21.00
2018-08-19T09:17:53.622Z,21.00
2018-08-19T09:20:22.607Z,21.00
2018-08-19T09:22:51.147Z,21.00
2018-08-19T09:25:19.801Z,21.00
2018-08-19T09:27:48.361Z,21.10
2018-08-19T09:30:20.584Z,21.10
2018-08-19T09:33:01.672Z,21.10
2018-08-19T09:35:31.608Z,21.10
2018-08-19T09:38:05.552Z,21.30
2018-08-19T09:40:34.842Z,21.40
2018-08-19T09:43:03.970Z,21.90
2018-08-19T09:45:33.245Z,21.80
2018-08-19T09:48:03.262Z,21.90
2018-08-19T09:50:33.702Z,21.80
2018-08-19T09:53:03.644Z,21.90
2018-08-19T09:55:38.043Z,22.00
2018-08-19T09:58:11.706Z,21.90
2018-08-19T10:00:45.987Z,21.90
2018-08-19T10:03:14.541Z,21.90
2018-08-19T10:05:43.169Z,22.00
2018-08-19T10:08:11.705Z,22.00
2018-08-19T10:10:40.345Z,22.20
2018-08-19T10:13:09.395Z,22.30
2018-08-19T10:15:37.901Z,22.50
2018-08-19T10:18:08.286Z,22.60
2018-08-19T10:20:37.245Z,22.60
2018-08-19T10:23:05.980Z,22.60
2018-08-19T10:25:34.518Z,22.50
2018-08-19T10:28:03.008Z,22.50
2018-08-19T10:30:32.129Z,22.60
2018-08-19T10:33:07.971Z,22.70
2018-08-19T10:35:36.432Z,22.80
2018-08-19T10:42:52.871Z,22.70
2018-08-19T10:45:22.364Z,22.80
2018-08-19T10:47:50.854Z,23.10
2018-08-19T10:50:19.372Z,23.30
2018-08-19T10:52:47.992Z,23.30
2018-08-19T10:55:16.497Z,23.30
2018-08-19T10:57:45.083Z,23.50
2018-08-19T11:00:15.083Z,23.40
2018-08-19T11:02:43.720Z,23.40
2018-08-19T11:05:12.620Z,23.70
2018-08-19T11:07:41.444Z,23.90
2018-08-19T11:10:18.989Z,23.80
2018-08-19T11:12:49.972Z,23.70
2018-08-19T11:15:30.970Z,23.70
2018-08-19T11:18:13.385Z,23.70
2018-08-19T11:20:41.826Z,23.70
2018-08-19T11:23:16.390Z,23.80
2018-08-19T11:25:45.286Z,24.10
2018-08-19T11:28:26.457Z,24.40
2018-08-19T11:30:54.924Z,24.40
2018-08-19T11:33:34.041Z,24.20
2018-08-19T11:36:03.196Z,24.30
2018-08-19T11:38:32.637Z,24.40
2018-08-19T11:41:06.026Z,24.40
2018-08-19T11:43:37.269Z,24.30
2018-08-19T11:46:06.546Z,24.30
2018-08-19T11:48:35.783Z,24.40
2018-08-19T11:51:04.366Z,24.50
2018-08-19T11:53:33.426Z,24.50
2018-08-19T11:56:03.450Z,24.50
2018-08-19T11:58:50.521Z,24.60
2018-08-19T12:01:20.274Z,24.70
2018-08-19T12:04:11.559Z,24.70
2018-08-19T12:06:40.045Z,24.70
2018-08-19T12:09:10.053Z,24.70
2018-08-19T12:11:39.793Z,24.80
2018-08-19T12:14:10.514Z,24.80
2018-08-19T12:16:46.890Z,24.90
2018-08-19T12:19:19.343Z,25.00
2018-08-19T12:21:51.062Z,25.00
2018-08-19T12:24:37.729Z,25.20
2018-08-19T12:27:08.021Z,25.10
2018-08-19T12:29:37.734Z,25.10
2018-08-19T12:32:27.351Z,25.20
2018-08-19T12:34:57.925Z,25.00
2018-08-19T12:37:27.719Z,25.10
2018-08-19T12:39:56.995Z,25.30
2018-08-19T12:42:26.146Z,25.50
2018-08-19T12:45:06.574Z,25.70
2018-08-19T12:47:35.534Z,25.70
2018-08-19T12:50:09.133Z,25.80
2018-08-19T12:52:37.751Z,26.00
2018-08-19T12:55:08.013Z,26.00
2018-08-19T12:57:37.715Z,26.00
2018-08-19T13:00:17.689Z,25.80
2018-08-19T13:02:47.752Z,25.70
2018-08-19T13:05:17.489Z,25.60
2018-08-19T13:07:46.214Z,25.50
2018-08-19T13:10:15.161Z,25.50
2018-08-19T13:12:48.961Z,25.50
2018-08-19T13:15:17.880Z,25.50
2018-08-19T13:17:46.417Z,25.50
2018-08-19T13:20:14.871Z,25.40
2018-08-19T13:22:50.001Z,25.30
2018-08-19T13:25:19.813Z,25.20
2018-08-19T13:27:48.421Z,25.30
2018-08-19T13:30:17.609Z,25.20
2018-08-19T13:32:46.471Z,25.10
2018-08-19T13:35:15.008Z,25.10
2018-08-19T13:37:43.561Z,25.10
2018-08-19T13:40:12.926Z,25.30
2018-08-19T13:42:41.728Z,25.40
2018-08-19T13:45:13.841Z,25.50
2018-08-19T13:47:43.990Z,25.60
2018-08-19T13:50:12.818Z,25.70
2018-08-19T13:52:41.951Z,25.90
2018-08-19T13:55:12.030Z,25.90
2018-08-19T13:57:40.644Z,26.00
2018-08-19T14:00:12.817Z,26.00
2018-08-19T14:02:41.383Z,26.10
2018-08-19T14:05:09.901Z,26.00
2018-08-19T14:07:38.363Z,26.30
2018-08-19T14:10:08.323Z,26.20
2018-08-19T14:12:36.841Z,26.20
2018-08-19T14:15:05.698Z,26.50
2018-08-19T14:17:34.164Z,26.70
2018-08-19T14:20:03.474Z,26.70
2018-08-19T14:22:32.457Z,26.70
2018-08-19T14:25:01.087Z,26.90
2018-08-19T14:27:29.584Z,27.00
2018-08-19T14:29:58.120Z,27.10
2018-08-19T14:32:34.066Z,27.10
2018-08-19T14:35:04.370Z,26.90
2018-08-19T14:37:34.203Z,26.90
2018-08-19T14:40:03.216Z,26.90
2018-08-19T14:42:32.511Z,26.80
2018-08-19T14:45:01.157Z,26.70
2018-08-19T14:47:30.177Z,26.90
2018-08-19T14:49:59.230Z,26.80
2018-08-19T14:52:28.179Z,26.80
2018-08-19T14:54:56.622Z,26.80
2018-08-19T14:57:25.510Z,26.70
2018-08-19T14:59:53.992Z,26.70
2018-08-19T15:02:22.717Z,27.10
2018-08-19T15:04:51.128Z,27.30
2018-08-19T15:07:19.536Z,27.50
2018-08-19T15:09:50.489Z,27.60
2018-08-19T15:12:21.116Z,27.60
2018-08-19T15:14:50.363Z,27.60
2018-08-19T15:17:18.863Z,27.70
2018-08-19T15:19:50.970Z,27.70
2018-08-19T15:22:19.699Z,27.80
2018-08-19T15:24:48.231Z,27.80
2018-08-19T15:27:16.858Z,27.70
2018-08-19T15:29:47.199Z,27.80
2018-08-19T15:32:15.975Z,27.70
2018-08-19T15:34:44.354Z,27.60
2018-08-19T15:37:12.801Z,27.80
2018-08-19T15:39:41.262Z,27.90
2018-08-19T15:42:10.121Z,27.70
2018-08-19T15:44:38.586Z,27.50
2018-08-19T15:47:07.537Z,27.30
2018-08-19T15:49:36.129Z,27.30
2018-08-19T15:59:06.049Z,27.30
2018-08-19T16:01:34.911Z,27.20
2018-08-19T16:04:10.274Z,27.10
2018-08-19T16:06:38.737Z,27.00
2018-08-19T16:09:10.671Z,26.90
2018-08-19T16:11:39.154Z,26.80
2018-08-19T16:14:14.503Z,26.70
2018-08-19T16:16:42.943Z,26.60
2018-08-19T16:19:11.526Z,26.50
2018-08-19T16:21:40.365Z,26.50
2018-08-19T16:24:09.350Z,26.40
2018-08-19T16:26:38.139Z,26.40
2018-08-19T16:29:06.593Z,26.30
2018-08-19T16:31:35.456Z,26.20
2018-08-19T16:34:04.769Z,26.20
2018-08-19T16:36:33.676Z,26.10
2018-08-19T16:39:02.268Z,26.10
2018-08-19T16:41:31.649Z,26.00
2018-08-19T16:44:01.401Z,26.00
2018-08-19T16:46:29.865Z,25.90
2018-08-19T16:48:58.346Z,25.80
2018-08-19T16:51:26.811Z,25.70
2018-08-19T16:53:55.302Z,25.70
2018-08-19T16:56:23.776Z,25.70
2018-08-19T16:58:52.195Z,25.70
2018-08-19T17:01:20.622Z,25.60
2018-08-19T17:03:49.172Z,25.60
2018-08-19T17:06:17.611Z,25.50
2018-08-19T17:08:46.121Z,25.50
2018-08-19T17:11:15.036Z,25.50
2018-08-19T17:13:43.535Z,25.30
2018-08-19T17:16:12.388Z,25.30
2018-08-19T17:18:40.905Z,25.30
2018-08-19T17:21:09.366Z,25.20
2018-08-19T17:23:37.849Z,25.20
2018-08-19T17:26:17.240Z,25.20
2018-08-19T17:28:45.744Z,25.20
2018-08-19T17:31:14.325Z,25.20
2018-08-19T17:33:42.710Z,25.10
2018-08-19T17:36:11.332Z,25.10
2018-08-19T17:38:39.787Z,25.10
2018-08-19T17:41:08.275Z,25.00
2018-08-19T17:43:42.069Z,25.00
2018-08-19T17:46:13.447Z,24.90
2018-08-19T17:48:43.358Z,24.90
2018-08-19T17:51:24.306Z,24.80
2018-08-19T17:53:52.765Z,24.70
2018-08-19T17:56:21.664Z,24.50
2018-08-19T17:58:50.668Z,24.40
2018-08-19T18:01:19.432Z,24.40
2018-08-19T18:03:48.256Z,24.20
2018-08-19T18:06:17.135Z,24.00
2018-08-19T18:08:50.738Z,24.00
2018-08-19T18:11:19.525Z,23.90
2018-08-19T18:13:48.241Z,23.80
2018-08-19T18:16:16.803Z,23.60
2018-08-19T18:18:46.106Z,23.50
2018-08-19T18:21:14.630Z,23.30
2018-08-19T18:23:45.133Z,23.30
2018-08-19T18:26:13.786Z,23.20
2018-08-19T18:28:44.839Z,23.10
2018-08-19T18:31:13.277Z,23.00
2018-08-19T18:33:50.739Z,23.00
2018-08-19T18:36:20.879Z,22.80
2018-08-19T18:38:49.715Z,22.90
2018-08-19T18:41:24.746Z,22.70
2018-08-19T18:43:55.788Z,22.80
2018-08-19T18:46:24.673Z,22.70
2018-08-19T18:49:29.372Z,22.50
2018-08-19T18:52:05.369Z,22.50
2018-08-19T18:54:33.768Z,22.40
2018-08-19T18:57:05.817Z,22.20
2018-08-19T18:59:34.352Z,22.10
2018-08-19T19:02:04.409Z,21.90
2018-08-19T19:04:32.851Z,21.90
2018-08-19T19:07:01.359Z,21.90
2018-08-19T19:09:36.359Z,21.80
2018-08-19T19:12:05.318Z,21.70
2018-08-19T19:14:33.908Z,21.70
2018-08-19T19:17:02.374Z,21.60
2018-08-19T19:19:35.032Z,21.50
2018-08-19T19:22:03.507Z,21.20
2018-08-19T19:24:39.269Z,21.30
2018-08-19T19:27:08.165Z,21.10
2018-08-19T19:29:36.766Z,21.10
2018-08-19T19:32:17.300Z,21.20
2018-08-19T19:34:45.749Z,21.10
2018-08-19T19:37:14.257Z,21.10
2018-08-19T19:39:42.856Z,21.10
2018-08-19T19:42:12.650Z,21.30
2018-08-19T19:44:41.080Z,21.20
2018-08-19T19:47:10.318Z,21.00
2018-08-19T19:49:46.808Z,20.90
2018-08-19T19:52:15.304Z,20.80
2018-08-19T19:54:43.888Z,20.70
2018-08-19T19:57:12.293Z,20.70
2018-08-19T19:59:40.741Z,20.60
2018-08-19T20:02:16.707Z,20.50
2018-08-19T20:04:45.352Z,20.40
2018-08-19T20:07:14.130Z,20.50
2018-08-19T20:09:42.652Z,20.50
2018-08-19T20:12:16.698Z,20.50
2018-08-19T20:14:49.124Z,20.40
2018-08-19T20:17:18.721Z,20.50
2018-08-19T20:19:47.218Z,20.40
2018-08-19T20:22:17.403Z,20.40
2018-08-19T20:24:46.306Z,20.30
2018-08-19T20:27:15.393Z,20.20
2018-08-19T20:29:43.916Z,20.30
2018-08-19T20:32:12.477Z,20.30
2018-08-19T20:34:40.871Z,20.30
2018-08-19T20:37:09.514Z,20.20
2018-08-19T20:39:37.944Z,20.20
2018-08-19T20:42:06.912Z,20.20
2018-08-19T20:44:37.256Z,20.30
2018-08-19T20:47:07.612Z,20.10
2018-08-19T20:49:36.101Z,20.10
2018-08-19T20:52:04.657Z,20.10
2018-08-19T20:54:33.358Z,20.00
2018-08-19T20:57:02.191Z,20.00
2018-08-19T20:59:36.646Z,20.00
2018-08-19T21:02:06.395Z,19.80
2018-08-19T21:04:34.873Z,19.80
2018-08-19T21:07:04.373Z,19.90
2018-08-19T21:09:34.618Z,19.90
2018-08-19T21:12:03.493Z,19.90
2018-08-19T21:14:32.121Z,19.90
2018-08-19T21:17:02.886Z,20.00
2018-08-19T21:19:31.412Z,20.10
2018-08-19T21:21:59.872Z,20.00
2018-08-19T21:24:28.459Z,19.90
2018-08-19T21:26:59.992Z,19.70
2018-08-19T21:29:28.889Z,19.50
2018-08-19T21:31:57.314Z,19.50
2018-08-19T21:34:25.926Z,19.50
2018-08-19T21:36:55.685Z,19.50
2018-08-19T21:39:24.929Z,19.50
2018-08-19T21:41:54.650Z,19.40
2018-08-19T21:44:24.232Z,19.40
2018-08-19T21:46:53.958Z,19.40
2018-08-19T21:49:22.552Z,19.40
2018-08-19T21:51:51.117Z,19.40
2018-08-19T21:54:19.707Z,19.30
2018-08-19T21:56:48.535Z,19.30
2018-08-19T21:59:23.123Z,19.30
2018-08-19T22:01:55.941Z,19.30
2018-08-19T22:04:24.944Z,19.40
2018-08-19T22:06:53.428Z,19.60
2018-08-19T22:09:33.746Z,19.60
2018-08-19T22:12:02.706Z,19.50
2018-08-19T22:14:32.313Z,19.50
2018-08-19T22:17:06.651Z,19.40
2018-08-19T22:19:35.137Z,19.30
2018-08-19T22:22:04.330Z,19.10
2018-08-19T22:24:32.862Z,19.10
2018-08-19T22:27:08.717Z,19.10
2018-08-19T22:29:37.226Z,19.10
2018-08-19T22:32:05.847Z,19.10
2018-08-19T22:34:34.291Z,19.10
2018-08-19T22:37:03.002Z,19.10
2018-08-19T22:39:31.415Z,19.10
2018-08-19T22:41:59.896Z,19.00
2018-08-19T22:44:28.303Z,19.00
2018-08-19T22:46:56.953Z,18.90
2018-08-19T22:49:28.230Z,18.90
2018-08-19T22:52:06.759Z,19.00
2018-08-19T22:54:35.225Z,18.90
2018-08-19T22:57:03.840Z,18.90
2018-08-19T22:59:32.323Z,18.90
2018-08-19T23:02:00.889Z,19.00
2018-08-19T23:04:29.538Z,19.00
2018-08-19T23:06:58.054Z,19.00
2018-08-19T23:09:26.646Z,19.00
2018-08-19T23:11:55.786Z,18.90
2018-08-19T23:14:35.681Z,18.90
2018-08-19T23:17:07.499Z,18.90
2018-08-19T23:19:36.050Z,18.90
2018-08-19T23:22:04.844Z,18.80
2018-08-19T23:24:33.464Z,18.80
2018-08-19T23:27:01.964Z,18.80
2018-08-19T23:29:30.567Z,18.70
2018-08-19T23:31:59.106Z,18.70
2018-08-19T23:34:27.628Z,18.70
2018-08-19T23:36:56.187Z,18.60
2018-08-19T23:39:25.200Z,18.70
2018-08-19T23:41:55.189Z,18.60
2018-08-19T23:44:23.770Z,18.60
2018-08-19T23:46:52.410Z,18.70
2018-08-19T23:49:20.826Z,18.70
2018-08-19T23:51:49.450Z,18.70
2018-08-19T23:54:17.872Z,18.70
2018-08-19T23:56:46.476Z,18.70
2018-08-19T23:59:18.008Z,18.70
